createdAt,value
2018-12-25T00:00:07.486Z,1028.89
2018-12-25T00:01:07.514Z,1028.90
2018-12-25T00:02:07.484Z,1028.91
2018-12-25T00:03:07.497Z,1028.89
2018-12-25T00:04:07.444Z,1028.85
2018-12-25T00:05:07.433Z,1028.78
2018-12-25T00:06:07.423Z,1028.84
2018-12-25T00:07:07.414Z,1028.82
2018-12-25T00:08:07.399Z,1028.79
2018-12-25T00:09:07.433Z,1028.79
2018-12-25T00:10:07.386Z,1028.78
2018-12-25T00:11:07.377Z,1028.73
2018-12-25T00:12:07.398Z,1028.77
2018-12-25T00:13:07.344Z,1028.75
2018-12-25T00:14:07.336Z,1028.75
2018-12-25T00:15:07.323Z,1028.74
2018-12-25T00:16:07.319Z,1028.82
2018-12-25T00:17:07.309Z,1028.86
2018-12-25T00:18:07.334Z,1028.90
2018-12-25T00:19:07.286Z,1028.91
2018-12-25T00:20:07.267Z,1028.93
2018-12-25T00:21:07.258Z,1028.96
2018-12-25T00:22:07.246Z,1028.99
2018-12-25T00:23:07.236Z,1028.95
2018-12-25T00:24:07.270Z,1028.97
2018-12-25T00:25:07.215Z,1029.01
2018-12-25T00:26:07.239Z,1028.99
2018-12-25T00:27:07.193Z,1028.98
2018-12-25T00:28:07.184Z,1028.94
2018-12-25T00:29:07.170Z,1028.90
2018-12-25T00:30:07.218Z,1028.89
2018-12-25T00:31:07.190Z,1028.89
2018-12-25T00:32:07.138Z,1028.87
2018-12-25T00:33:07.127Z,1028.90
2018-12-25T00:34:07.121Z,1028.93
2018-12-25T00:35:07.105Z,1028.93
2018-12-25T00:36:07.379Z,1028.99
2018-12-25T00:37:07.087Z,1028.94
2018-12-25T00:38:07.073Z,1028.92
2018-12-25T00:39:07.066Z,1028.89
2018-12-25T00:40:07.050Z,1028.88
2018-12-25T00:41:07.050Z,1028.89
2018-12-25T00:42:07.072Z,1028.91
2018-12-25T00:43:07.018Z,1028.91
2018-12-25T00:44:07.008Z,1028.91
2018-12-25T00:45:07.004Z,1029.00
2018-12-25T00:46:07.037Z,1028.95
2018-12-25T00:47:06.973Z,1028.98
2018-12-25T00:48:06.968Z,1028.99
2018-12-25T00:49:14.539Z,1029.00
2018-12-25T00:50:07.941Z,1028.98
2018-12-25T00:51:06.974Z,1028.98
2018-12-25T00:52:06.928Z,1029.01
2018-12-25T00:53:06.912Z,1029.05
2018-12-25T00:54:06.901Z,1029.08
2018-12-25T00:55:06.894Z,1029.08
2018-12-25T00:56:06.927Z,1029.06
2018-12-25T00:57:06.868Z,1028.99
2018-12-25T00:58:06.856Z,1029.00
2018-12-25T00:59:06.844Z,1028.95
2018-12-25T01:00:06.851Z,1028.96
2018-12-25T01:01:06.821Z,1028.92
2018-12-25T01:02:06.851Z,1028.99
2018-12-25T01:03:06.803Z,1028.95
2018-12-25T01:04:06.792Z,1028.97
2018-12-25T01:05:06.785Z,1028.90
2018-12-25T01:06:06.782Z,1028.84
2018-12-25T01:07:06.772Z,1028.78
2018-12-25T01:08:06.799Z,1028.75
2018-12-25T01:09:06.793Z,1028.70
2018-12-25T01:10:06.727Z,1028.70
2018-12-25T01:11:06.772Z,1028.72
2018-12-25T01:12:06.701Z,1028.75
2018-12-25T01:13:06.692Z,1028.76
2018-12-25T01:14:06.722Z,1028.71
2018-12-25T01:15:06.678Z,1028.77
2018-12-25T01:16:06.662Z,1028.79
2018-12-25T01:17:06.650Z,1028.87
2018-12-25T01:18:06.638Z,1028.85
2018-12-25T01:19:07.530Z,1028.91
2018-12-25T01:20:06.655Z,1028.90
2018-12-25T01:21:06.605Z,1028.90
2018-12-25T01:22:06.593Z,1028.87
2018-12-25T01:23:06.588Z,1028.79
2018-12-25T01:24:06.620Z,1028.83
2018-12-25T01:25:06.561Z,1028.75
2018-12-25T01:26:06.559Z,1028.81
2018-12-25T01:27:06.541Z,1028.85
2018-12-25T01:28:06.528Z,1028.85
2018-12-25T01:29:06.516Z,1028.87
2018-12-25T01:30:06.553Z,1028.89
2018-12-25T01:31:06.541Z,1028.92
2018-12-25T01:32:06.489Z,1028.93
2018-12-25T01:33:06.474Z,1028.98
2018-12-25T01:34:06.466Z,1028.95
2018-12-25T01:35:06.460Z,1028.95
2018-12-25T01:36:06.441Z,1028.96
2018-12-25T01:37:06.476Z,1028.92
2018-12-25T01:38:06.423Z,1028.92
2018-12-25T01:39:06.450Z,1028.91
2018-12-25T01:40:06.403Z,1028.93
2018-12-25T01:41:06.385Z,1028.94
2018-12-25T01:42:06.377Z,1029.00
2018-12-25T01:43:06.366Z,1028.97
2018-12-25T01:44:06.401Z,1028.98
2018-12-25T01:45:06.345Z,1029.01
2018-12-25T01:46:06.332Z,1028.99
2018-12-25T01:47:06.321Z,1028.96
2018-12-25T01:48:06.311Z,1029.02
2018-12-25T01:49:06.301Z,1029.00
2018-12-25T01:50:06.330Z,1029.08
2018-12-25T01:51:06.381Z,1029.06
2018-12-25T01:52:06.266Z,1029.07
2018-12-25T01:53:06.258Z,1029.05
2018-12-25T01:54:06.245Z,1029.07
2018-12-25T01:55:06.245Z,1029.05
2018-12-25T01:56:06.265Z,1029.11
2018-12-25T01:57:06.211Z,1029.14
2018-12-25T01:58:06.202Z,1029.12
2018-12-25T01:59:06.192Z,1029.20
2018-12-25T02:00:06.181Z,1029.22
2018-12-25T02:01:06.212Z,1029.25
2018-12-25T02:02:06.158Z,1029.21
2018-12-25T02:03:06.161Z,1029.14
2018-12-25T02:04:06.136Z,1029.11
2018-12-25T02:05:06.124Z,1029.09
2018-12-25T02:06:06.116Z,1029.11
2018-12-25T02:07:06.145Z,1029.08
2018-12-25T02:08:06.100Z,1029.12
2018-12-25T02:09:06.082Z,1029.16
2018-12-25T02:10:06.116Z,1029.16
2018-12-25T02:11:06.063Z,1029.15
2018-12-25T02:12:06.097Z,1029.17
2018-12-25T02:13:06.042Z,1029.17
2018-12-25T02:14:06.029Z,1029.17
2018-12-25T02:15:06.017Z,1029.19
2018-12-25T02:16:06.006Z,1029.19
2018-12-25T02:17:05.994Z,1029.20
2018-12-25T02:18:06.029Z,1029.21
2018-12-25T02:19:06.015Z,1029.13
2018-12-25T02:20:05.972Z,1029.13
2018-12-25T02:21:05.951Z,1029.11
2018-12-25T02:22:05.941Z,1029.10
2018-12-25T02:23:05.969Z,1029.15
2018-12-25T02:24:05.920Z,1029.07
2018-12-25T02:25:05.952Z,1029.15
2018-12-25T02:26:05.898Z,1029.17
2018-12-25T02:27:05.886Z,1029.20
2018-12-25T02:28:05.875Z,1029.21
2018-12-25T02:29:05.864Z,1029.17
2018-12-25T02:30:05.855Z,1029.17
2018-12-25T02:31:05.885Z,1029.15
2018-12-25T02:32:05.833Z,1029.14
2018-12-25T02:33:05.823Z,1029.19
2018-12-25T02:34:05.815Z,1029.14
2018-12-25T02:35:05.804Z,1029.13
2018-12-25T02:36:05.832Z,1029.14
2018-12-25T02:37:05.827Z,1029.14
2018-12-25T02:38:05.800Z,1029.12
2018-12-25T02:39:05.758Z,1029.11
2018-12-25T02:40:05.747Z,1029.08
2018-12-25T02:41:05.735Z,1029.10
2018-12-25T02:42:05.720Z,1029.15
2018-12-25T02:43:05.786Z,1029.10
2018-12-25T02:44:05.703Z,1029.10
2018-12-25T02:45:05.704Z,1029.12
2018-12-25T02:46:05.678Z,1029.13
2018-12-25T02:47:05.675Z,1029.16
2018-12-25T02:48:05.659Z,1029.15
2018-12-25T02:49:05.687Z,1029.10
2018-12-25T02:50:05.648Z,1029.14
2018-12-25T02:51:05.682Z,1029.09
2018-12-25T02:52:05.636Z,1029.07
2018-12-25T02:53:05.606Z,1029.07
2018-12-25T02:54:05.593Z,1029.07
2018-12-25T02:55:05.586Z,1029.07
2018-12-25T02:56:05.575Z,1029.06
2018-12-25T02:57:05.616Z,1029.08
2018-12-25T02:58:05.550Z,1029.05
2018-12-25T02:59:05.583Z,1029.01
2018-12-25T03:00:06.818Z,1028.96
2018-12-25T03:01:05.569Z,1028.97
2018-12-25T03:02:05.508Z,1029.00
2018-12-25T03:03:05.502Z,1029.01
2018-12-25T03:04:05.496Z,1028.95
2018-12-25T03:05:05.484Z,1028.94
2018-12-25T03:06:05.509Z,1028.94
2018-12-25T03:07:05.502Z,1028.95
2018-12-25T03:08:05.458Z,1028.99
2018-12-25T03:09:05.476Z,1028.94
2018-12-25T03:10:05.427Z,1028.96
2018-12-25T03:11:05.457Z,1028.94
2018-12-25T03:12:05.405Z,1028.90
2018-12-25T03:13:05.563Z,1028.93
2018-12-25T03:14:05.379Z,1028.89
2018-12-25T03:15:05.365Z,1028.90
2018-12-25T03:16:05.405Z,1028.88
2018-12-25T03:17:05.344Z,1028.91
2018-12-25T03:18:05.338Z,1028.87
2018-12-25T03:19:05.322Z,1028.90
2018-12-25T03:20:05.313Z,1028.84
2018-12-25T03:21:05.309Z,1028.83
2018-12-25T03:22:05.328Z,1028.82
2018-12-25T03:23:05.279Z,1028.83
2018-12-25T03:24:05.270Z,1028.87
2018-12-25T03:25:05.257Z,1028.87
2018-12-25T03:26:05.306Z,1028.89
2018-12-25T03:27:05.241Z,1028.91
2018-12-25T03:28:05.237Z,1028.87
2018-12-25T03:29:05.219Z,1028.88
2018-12-25T03:30:05.257Z,1028.88
2018-12-25T03:31:05.295Z,1028.84
2018-12-25T03:32:05.184Z,1028.85
2018-12-25T03:33:05.181Z,1028.86
2018-12-25T03:34:05.163Z,1028.81
2018-12-25T03:35:05.152Z,1028.77
2018-12-25T03:36:05.140Z,1028.83
2018-12-25T03:37:05.171Z,1028.77
2018-12-25T03:38:05.115Z,1028.76
2018-12-25T03:39:05.115Z,1028.76
2018-12-25T03:40:05.095Z,1028.72
2018-12-25T03:41:05.087Z,1028.69
2018-12-25T03:42:05.077Z,1028.67
2018-12-25T03:43:05.107Z,1028.71
2018-12-25T03:44:05.054Z,1028.73
2018-12-25T03:45:05.044Z,1028.76
2018-12-25T03:46:05.088Z,1028.74
2018-12-25T03:47:05.026Z,1028.75
2018-12-25T03:48:05.010Z,1028.74
2018-12-25T03:49:05.000Z,1028.72
2018-12-25T03:50:10.671Z,1028.74
2018-12-25T03:51:05.976Z,1028.74
2018-12-25T03:52:04.975Z,1028.78
2018-12-25T03:53:04.952Z,1028.76
2018-12-25T03:54:05.002Z,1028.73
2018-12-25T03:55:04.940Z,1028.75
2018-12-25T03:56:04.923Z,1028.72
2018-12-25T03:57:04.916Z,1028.71
2018-12-25T03:58:04.907Z,1028.74
2018-12-25T03:59:04.911Z,1028.73
2018-12-25T04:00:04.921Z,1028.70
2018-12-25T04:01:04.866Z,1028.66
2018-12-25T04:02:04.857Z,1028.66
2018-12-25T04:03:04.844Z,1028.66
2018-12-25T04:04:04.838Z,1028.65
2018-12-25T04:05:04.831Z,1028.62
2018-12-25T04:06:04.854Z,1028.63
2018-12-25T04:07:04.807Z,1028.66
2018-12-25T04:08:04.795Z,1028.68
2018-12-25T04:09:04.788Z,1028.62
2018-12-25T04:10:04.784Z,1028.58
2018-12-25T04:11:04.764Z,1028.61
2018-12-25T04:12:04.793Z,1028.58
2018-12-25T04:13:04.741Z,1028.64
2018-12-25T04:14:04.751Z,1028.61
2018-12-25T04:15:04.715Z,1028.56
2018-12-25T04:16:04.748Z,1028.54
2018-12-25T04:17:04.711Z,1028.54
2018-12-25T04:18:04.681Z,1028.51
2018-12-25T04:19:04.676Z,1028.56
2018-12-25T04:20:04.678Z,1028.54
2018-12-25T04:21:04.695Z,1028.55
2018-12-25T04:22:04.640Z,1028.52
2018-12-25T04:23:04.631Z,1028.48
2018-12-25T04:24:04.619Z,1028.52
2018-12-25T04:25:04.613Z,1028.59
2018-12-25T04:26:04.602Z,1028.57
2018-12-25T04:27:04.631Z,1028.60
2018-12-25T04:28:04.574Z,1028.55
2018-12-25T04:29:04.565Z,1028.48
2018-12-25T04:30:04.603Z,1028.51
2018-12-25T04:31:04.559Z,1028.51
2018-12-25T04:32:04.547Z,1028.54
2018-12-25T04:33:04.529Z,1028.53
2018-12-25T04:34:04.511Z,1028.55
2018-12-25T04:35:04.502Z,1028.58
2018-12-25T04:36:04.596Z,1028.59
2018-12-25T04:37:04.517Z,1028.62
2018-12-25T04:38:04.470Z,1028.64
2018-12-25T04:39:04.457Z,1028.60
2018-12-25T04:40:04.447Z,1028.63
2018-12-25T04:41:04.433Z,1028.59
2018-12-25T04:42:04.471Z,1028.57
2018-12-25T04:43:04.422Z,1028.56
2018-12-25T04:44:04.402Z,1028.53
2018-12-25T04:45:04.397Z,1028.51
2018-12-25T04:46:04.422Z,1028.47
2018-12-25T04:47:04.372Z,1028.51
2018-12-25T04:48:04.361Z,1028.49
2018-12-25T04:49:04.391Z,1028.44
2018-12-25T04:50:04.348Z,1028.41
2018-12-25T04:51:04.330Z,1028.41
2018-12-25T04:52:04.320Z,1028.44
2018-12-25T04:53:04.322Z,1028.42
2018-12-25T04:54:04.292Z,1028.41
2018-12-25T04:55:04.327Z,1028.42
2018-12-25T04:56:04.275Z,1028.43
2018-12-25T04:57:04.265Z,1028.47
2018-12-25T04:58:04.250Z,1028.43
2018-12-25T04:59:04.244Z,1028.48
2018-12-25T05:00:04.256Z,1028.43
2018-12-25T05:01:04.260Z,1028.47
2018-12-25T05:02:04.237Z,1028.42
2018-12-25T05:03:04.200Z,1028.43
2018-12-25T05:04:04.188Z,1028.47
2018-12-25T05:05:04.175Z,1028.43
2018-12-25T05:06:04.205Z,1028.45
2018-12-25T05:07:04.160Z,1028.44
2018-12-25T05:08:04.154Z,1028.45
2018-12-25T05:09:04.134Z,1028.43
2018-12-25T05:10:04.133Z,1028.44
2018-12-25T05:11:04.110Z,1028.46
2018-12-25T05:12:04.153Z,1028.39
2018-12-25T05:13:04.099Z,1028.38
2018-12-25T05:14:04.080Z,1028.43
2018-12-25T05:15:04.068Z,1028.42
2018-12-25T05:16:04.067Z,1028.45
2018-12-25T05:17:04.047Z,1028.43
2018-12-25T05:18:04.078Z,1028.49
2018-12-25T05:19:04.042Z,1028.52
2018-12-25T05:20:04.056Z,1028.55
2018-12-25T05:21:04.010Z,1028.48
2018-12-25T05:22:03.989Z,1028.46
2018-12-25T05:23:03.978Z,1028.48
2018-12-25T05:24:03.971Z,1028.48
2018-12-25T05:25:03.959Z,1028.51
2018-12-25T05:26:03.998Z,1028.48
2018-12-25T05:27:03.936Z,1028.45
2018-12-25T05:28:03.930Z,1028.42
2018-12-25T05:29:03.914Z,1028.44
2018-12-25T05:30:03.913Z,1028.45
2018-12-25T05:31:03.897Z,1028.46
2018-12-25T05:32:03.928Z,1028.46
2018-12-25T05:33:03.879Z,1028.45
2018-12-25T05:34:03.860Z,1028.47
2018-12-25T05:35:03.855Z,1028.49
2018-12-25T05:36:03.841Z,1028.44
2018-12-25T05:37:03.829Z,1028.45
2018-12-25T05:38:03.863Z,1028.45
2018-12-25T05:39:03.807Z,1028.49
2018-12-25T05:40:03.798Z,1028.40
2018-12-25T05:41:03.786Z,1028.38
2018-12-25T05:42:03.802Z,1028.39
2018-12-25T05:43:03.774Z,1028.39
2018-12-25T05:44:03.804Z,1028.40
2018-12-25T05:45:03.745Z,1028.35
2018-12-25T05:46:03.738Z,1028.33
2018-12-25T05:47:03.733Z,1028.40
2018-12-25T05:48:03.723Z,1028.32
2018-12-25T05:49:03.719Z,1028.34
2018-12-25T05:50:03.750Z,1028.34
2018-12-25T05:51:03.678Z,1028.32
2018-12-25T05:52:03.671Z,1028.32
2018-12-25T05:53:03.668Z,1028.33
2018-12-25T05:54:03.643Z,1028.33
2018-12-25T05:55:03.633Z,1028.29
2018-12-25T05:56:03.666Z,1028.29
2018-12-25T05:57:03.611Z,1028.28
2018-12-25T05:58:03.601Z,1028.30
2018-12-25T05:59:03.592Z,1028.34
2018-12-25T06:00:03.585Z,1028.34
2018-12-25T06:01:03.587Z,1028.35
2018-12-25T06:02:03.598Z,1028.35
2018-12-25T06:03:03.558Z,1028.42
2018-12-25T06:04:03.553Z,1028.41
2018-12-25T06:05:03.543Z,1028.40
2018-12-25T06:06:03.519Z,1028.42
2018-12-25T06:07:03.806Z,1028.46
2018-12-25T06:08:03.491Z,1028.51
2018-12-25T06:09:03.489Z,1028.44
2018-12-25T06:10:03.484Z,1028.50
2018-12-25T06:11:03.466Z,1028.49
2018-12-25T06:12:03.464Z,1028.47
2018-12-25T06:13:03.490Z,1028.48
2018-12-25T06:14:03.430Z,1028.50
2018-12-25T06:15:03.474Z,1028.52
2018-12-25T06:16:03.436Z,1028.47
2018-12-25T06:17:03.406Z,1028.48
2018-12-25T06:18:03.393Z,1028.48
2018-12-25T06:19:03.373Z,1028.49
2018-12-25T06:20:03.367Z,1028.52
2018-12-25T06:21:03.405Z,1028.52
2018-12-25T06:22:03.347Z,1028.52
2018-12-25T06:23:03.342Z,1028.49
2018-12-25T06:24:03.375Z,1028.59
2018-12-25T06:25:03.314Z,1028.57
2018-12-25T06:26:03.308Z,1028.55
2018-12-25T06:27:03.286Z,1028.51
2018-12-25T06:28:03.283Z,1028.54
2018-12-25T06:29:03.292Z,1028.53
2018-12-25T06:30:03.300Z,1028.52
2018-12-25T06:31:03.246Z,1028.52
2018-12-25T06:32:03.280Z,1028.51
2018-12-25T06:33:03.233Z,1028.46
2018-12-25T06:34:03.208Z,1028.51
2018-12-25T06:35:03.202Z,1028.51
2018-12-25T06:36:03.190Z,1028.50
2018-12-25T06:37:03.236Z,1028.51
2018-12-25T06:38:03.182Z,1028.53
2018-12-25T06:39:03.170Z,1028.50
2018-12-25T06:40:03.156Z,1028.53
2018-12-25T06:41:03.139Z,1028.47
2018-12-25T06:42:03.150Z,1028.48
2018-12-25T06:43:03.166Z,1028.52
2018-12-25T06:44:03.110Z,1028.54
2018-12-25T06:45:03.095Z,1028.47
2018-12-25T06:46:03.090Z,1028.49
2018-12-25T06:47:03.095Z,1028.50
2018-12-25T06:48:03.131Z,1028.50
2018-12-25T06:49:03.052Z,1028.50
2018-12-25T06:50:03.046Z,1028.47
2018-12-25T06:51:04.043Z,1028.43
2018-12-25T06:52:03.029Z,1028.47
2018-12-25T06:53:03.055Z,1028.42
2018-12-25T06:54:03.000Z,1028.42
2018-12-25T06:55:03.074Z,1028.41
2018-12-25T06:56:02.977Z,1028.44
2018-12-25T06:57:02.991Z,1028.44
2018-12-25T06:58:02.964Z,1028.45
2018-12-25T06:59:02.982Z,1028.40
2018-12-25T07:00:02.934Z,1028.35
2018-12-25T07:01:02.936Z,1028.34
2018-12-25T07:02:02.910Z,1028.31
2018-12-25T07:03:02.900Z,1028.31
2018-12-25T07:04:02.949Z,1028.34
2018-12-25T07:05:02.872Z,1028.39
2018-12-25T07:06:02.890Z,1028.38
2018-12-25T07:07:02.861Z,1028.42
2018-12-25T07:08:02.843Z,1028.47
2018-12-25T07:09:02.849Z,1028.46
2018-12-25T07:10:02.881Z,1028.44
2018-12-25T07:11:02.816Z,1028.47
2018-12-25T07:12:02.799Z,1028.37
2018-12-25T07:13:02.808Z,1028.45
2018-12-25T07:14:02.783Z,1028.46
2018-12-25T07:15:02.773Z,1028.44
2018-12-25T07:16:02.797Z,1028.43
2018-12-25T07:17:02.753Z,1028.41
2018-12-25T07:18:02.783Z,1028.39
2018-12-25T07:19:02.734Z,1028.45
2018-12-25T07:20:02.717Z,1028.42
2018-12-25T07:21:02.701Z,1028.44
2018-12-25T07:22:02.830Z,1028.43
2018-12-25T07:23:02.680Z,1028.42
2018-12-25T07:24:02.672Z,1028.43
2018-12-25T07:25:02.657Z,1028.38
2018-12-25T07:26:02.646Z,1028.43
2018-12-25T07:27:02.633Z,1028.42
2018-12-25T07:28:02.700Z,1028.49
2018-12-25T07:29:02.618Z,1028.47
2018-12-25T07:30:02.604Z,1028.46
2018-12-25T07:31:02.616Z,1028.45
2018-12-25T07:32:02.609Z,1028.43
2018-12-25T07:33:02.623Z,1028.43
2018-12-25T07:34:02.564Z,1028.47
2018-12-25T07:35:02.556Z,1028.47
2018-12-25T07:36:02.550Z,1028.42
2018-12-25T07:37:02.525Z,1028.41
2018-12-25T07:38:02.520Z,1028.43
2018-12-25T07:39:02.547Z,1028.36
2018-12-25T07:40:02.498Z,1028.40
2018-12-25T07:41:02.533Z,1028.40
2018-12-25T07:42:02.469Z,1028.34
2018-12-25T07:43:02.501Z,1028.32
2018-12-25T07:44:02.493Z,1028.31
2018-12-25T07:45:02.444Z,1028.29
2018-12-25T07:46:02.430Z,1028.24
2018-12-25T07:47:02.430Z,1028.21
2018-12-25T07:48:02.418Z,1028.22
2018-12-25T07:49:02.392Z,1028.19
2018-12-25T07:50:02.423Z,1028.18
2018-12-25T07:51:02.375Z,1028.17
2018-12-25T07:52:02.363Z,1028.20
2018-12-25T07:53:02.359Z,1028.21
2018-12-25T07:54:02.379Z,1028.19
2018-12-25T07:55:02.380Z,1028.21
2018-12-25T07:56:02.360Z,1028.19
2018-12-25T07:57:02.309Z,1028.23
2018-12-25T07:58:02.327Z,1028.24
2018-12-25T07:59:02.288Z,1028.22
2018-12-25T08:00:02.358Z,1028.19
2018-12-25T08:01:02.265Z,1028.23
2018-12-25T08:02:02.302Z,1028.21
2018-12-25T08:03:02.261Z,1028.21
2018-12-25T08:04:02.253Z,1028.20
2018-12-25T08:05:02.226Z,1028.17
2018-12-25T08:06:02.213Z,1028.20
2018-12-25T08:07:02.220Z,1028.17
2018-12-25T08:08:02.228Z,1028.19
2018-12-25T08:09:02.182Z,1028.23
2018-12-25T08:10:02.167Z,1028.28
2018-12-25T08:11:02.162Z,1028.28
2018-12-25T08:12:02.153Z,1028.28
2018-12-25T08:13:02.148Z,1028.26
2018-12-25T08:14:02.176Z,1028.28
2018-12-25T08:15:02.124Z,1028.26
2018-12-25T08:16:02.119Z,1028.29
2018-12-25T08:17:02.090Z,1028.29
2018-12-25T08:18:02.091Z,1028.32
2018-12-25T08:19:02.073Z,1028.33
2018-12-25T08:20:02.115Z,1028.33
2018-12-25T08:21:02.050Z,1028.31
2018-12-25T08:22:02.038Z,1028.27
2018-12-25T08:23:02.630Z,1028.28
2018-12-25T08:24:02.018Z,1028.24
2018-12-25T08:25:02.005Z,1028.25
2018-12-25T08:26:02.032Z,1028.20
2018-12-25T08:27:02.022Z,1028.24
2018-12-25T08:28:01.986Z,1028.23
2018-12-25T08:29:01.963Z,1028.29
2018-12-25T08:30:01.970Z,1028.27
2018-12-25T08:31:01.937Z,1028.27
2018-12-25T08:32:01.934Z,1028.23
2018-12-25T08:33:01.961Z,1028.29
2018-12-25T08:34:01.927Z,1028.25
2018-12-25T08:35:01.908Z,1028.28
2018-12-25T08:36:01.899Z,1028.28
2018-12-25T08:37:01.917Z,1028.28
2018-12-25T08:38:01.865Z,1028.29
2018-12-25T08:39:01.853Z,1028.28
2018-12-25T08:40:01.849Z,1028.30
2018-12-25T08:41:01.892Z,1028.29
2018-12-25T08:42:01.870Z,1028.30
2018-12-25T08:43:01.813Z,1028.33
2018-12-25T08:44:01.801Z,1028.32
2018-12-25T08:45:01.788Z,1028.34
2018-12-25T08:46:01.779Z,1028.29
2018-12-25T08:47:02.747Z,1028.33
2018-12-25T08:48:01.835Z,1028.32
2018-12-25T08:49:01.749Z,1028.33
2018-12-25T08:50:01.780Z,1028.36
2018-12-25T08:51:01.728Z,1028.41
2018-12-25T08:52:01.712Z,1028.44
2018-12-25T08:53:01.703Z,1028.43
2018-12-25T08:54:01.717Z,1028.44
2018-12-25T08:55:01.731Z,1028.35
2018-12-25T08:56:01.729Z,1028.38
2018-12-25T08:57:01.665Z,1028.31
2018-12-25T08:58:01.650Z,1028.34
2018-12-25T08:59:01.691Z,1028.29
2018-12-25T09:00:01.627Z,1028.34
2018-12-25T09:01:01.683Z,1028.41
2018-12-25T09:02:01.611Z,1028.45
2018-12-25T09:03:01.603Z,1028.48
2018-12-25T09:04:01.654Z,1028.47
2018-12-25T09:05:01.578Z,1028.52
2018-12-25T09:06:01.582Z,1028.59
2018-12-25T09:07:01.551Z,1028.56
2018-12-25T09:08:01.566Z,1028.58
2018-12-25T09:09:01.539Z,1028.56
2018-12-25T09:10:01.600Z,1028.61
2018-12-25T09:11:01.542Z,1028.66
2018-12-25T09:12:01.572Z,1028.69
2018-12-25T09:13:01.485Z,1028.67
2018-12-25T09:14:01.478Z,1028.68
2018-12-25T09:15:01.467Z,1028.68
2018-12-25T09:16:01.504Z,1028.72
2018-12-25T09:17:01.449Z,1028.70
2018-12-25T09:18:01.485Z,1028.68
2018-12-25T09:19:01.434Z,1028.70
2018-12-25T09:20:01.421Z,1028.70
2018-12-25T09:21:01.428Z,1028.71
2018-12-25T09:22:01.404Z,1028.66
2018-12-25T09:23:01.439Z,1028.67
2018-12-25T09:24:01.370Z,1028.65
2018-12-25T09:25:01.449Z,1028.66
2018-12-25T09:26:01.409Z,1028.67
2018-12-25T09:27:01.345Z,1028.58
2018-12-25T09:28:01.335Z,1028.65
2018-12-25T09:29:01.330Z,1028.67
2018-12-25T09:30:01.360Z,1028.63
2018-12-25T09:31:01.311Z,1028.67
2018-12-25T09:32:01.319Z,1028.70
2018-12-25T09:33:01.311Z,1028.70
2018-12-25T09:34:01.263Z,1028.69
2018-12-25T09:35:01.264Z,1028.63
2018-12-25T09:36:01.265Z,1028.64
2018-12-25T09:37:01.274Z,1028.62
2018-12-25T09:38:01.218Z,1028.64
2018-12-25T09:39:01.211Z,1028.64
2018-12-25T09:40:01.205Z,1028.64
2018-12-25T09:41:01.197Z,1028.62
2018-12-25T09:42:01.178Z,1028.61
2018-12-25T09:43:01.236Z,1028.63
2018-12-25T09:44:01.156Z,1028.61
2018-12-25T09:45:01.144Z,1028.59
2018-12-25T09:46:01.134Z,1028.58
2018-12-25T09:47:01.391Z,1028.53
2018-12-25T09:48:01.119Z,1028.56
2018-12-25T09:49:01.099Z,1028.60
2018-12-25T09:50:01.090Z,1028.57
2018-12-25T09:51:01.128Z,1028.61
2018-12-25T09:52:01.071Z,1028.53
2018-12-25T09:53:01.136Z,1028.52
2018-12-25T09:54:01.170Z,1028.51
2018-12-25T09:55:01.045Z,1028.52
2018-12-25T09:56:01.040Z,1028.53
2018-12-25T09:57:01.025Z,1028.50
2018-12-25T09:58:01.111Z,1028.46
2018-12-25T09:59:01.038Z,1028.45
2018-12-25T10:00:00.990Z,1028.49
2018-12-25T10:01:00.970Z,1028.46
2018-12-25T10:02:00.961Z,1028.45
2018-12-25T10:03:00.970Z,1028.42
2018-12-25T10:04:00.959Z,1028.47
2018-12-25T10:05:00.981Z,1028.46
2018-12-25T10:06:00.925Z,1028.44
2018-12-25T10:07:00.919Z,1028.47
2018-12-25T10:08:00.954Z,1028.43
2018-12-25T10:09:00.889Z,1028.40
2018-12-25T10:10:00.870Z,1028.44
2018-12-25T10:11:00.878Z,1028.44
2018-12-25T10:12:00.932Z,1028.40
2018-12-25T10:13:00.876Z,1028.36
2018-12-25T10:14:00.842Z,1028.33
2018-12-25T10:15:00.820Z,1028.29
2018-12-25T10:16:00.884Z,1028.29
2018-12-25T10:17:00.796Z,1028.30
2018-12-25T10:18:00.801Z,1028.24
2018-12-25T10:19:00.798Z,1028.27
2018-12-25T10:20:00.775Z,1028.28
2018-12-25T10:21:00.757Z,1028.28
2018-12-25T10:22:03.196Z,1028.32
2018-12-25T10:23:00.735Z,1028.31
2018-12-25T10:24:00.731Z,1028.32
2018-12-25T10:25:00.713Z,1028.32
2018-12-25T10:26:00.711Z,1028.33
2018-12-25T10:27:00.708Z,1028.34
2018-12-25T10:28:00.740Z,1028.37
2018-12-25T10:29:00.690Z,1028.40
2018-12-25T10:30:00.658Z,1028.39
2018-12-25T10:31:00.644Z,1028.40
2018-12-25T10:32:00.662Z,1028.40
2018-12-25T10:33:00.910Z,1028.42
2018-12-25T10:34:00.631Z,1028.38
2018-12-25T10:35:00.600Z,1028.38
2018-12-25T10:36:00.593Z,1028.36
2018-12-25T10:37:00.599Z,1028.35
2018-12-25T10:38:00.580Z,1028.36
2018-12-25T10:39:00.610Z,1028.28
2018-12-25T10:40:00.550Z,1028.31
2018-12-25T10:41:00.564Z,1028.24
2018-12-25T10:42:00.534Z,1028.26
2018-12-25T10:43:00.529Z,1028.26
2018-12-25T10:44:00.522Z,1028.22
2018-12-25T10:45:00.556Z,1028.22
2018-12-25T10:46:00.498Z,1028.20
2018-12-25T10:47:00.517Z,1028.22
2018-12-25T10:48:00.478Z,1028.23
2018-12-25T10:49:00.450Z,1028.20
2018-12-25T10:50:00.492Z,1028.23
2018-12-25T10:51:00.444Z,1028.22
2018-12-25T10:52:00.424Z,1028.23
2018-12-25T10:53:00.409Z,1028.29
2018-12-25T10:54:00.399Z,1028.27
2018-12-25T10:55:00.404Z,1028.22
2018-12-25T10:56:00.439Z,1028.20
2018-12-25T10:57:00.364Z,1028.21
2018-12-25T10:58:00.370Z,1028.25
2018-12-25T10:59:00.340Z,1028.30
2018-12-25T11:00:00.343Z,1028.26
2018-12-25T11:01:00.330Z,1028.26
2018-12-25T11:02:00.363Z,1028.27
2018-12-25T11:03:00.307Z,1028.31
2018-12-25T11:04:00.292Z,1028.25
2018-12-25T11:05:00.300Z,1028.32
2018-12-25T11:06:00.314Z,1028.30
2018-12-25T11:07:00.276Z,1028.31
2018-12-25T11:08:00.311Z,1028.31
2018-12-25T11:09:00.236Z,1028.32
2018-12-25T11:10:00.226Z,1028.30
2018-12-25T11:11:00.219Z,1028.28
2018-12-25T11:12:00.202Z,1028.25
2018-12-25T11:13:00.189Z,1028.22
2018-12-25T11:14:00.246Z,1028.25
2018-12-25T11:15:00.287Z,1028.24
2018-12-25T11:16:00.185Z,1028.23
2018-12-25T11:17:00.149Z,1028.19
2018-12-25T11:18:00.140Z,1028.20
2018-12-25T11:19:00.157Z,1028.16
2018-12-25T11:20:00.174Z,1028.18
2018-12-25T11:21:00.103Z,1028.15
2018-12-25T11:22:00.154Z,1028.12
2018-12-25T11:23:00.147Z,1028.13
2018-12-25T11:24:00.079Z,1028.12
2018-12-25T11:25:00.251Z,1028.10
2018-12-25T11:26:00.055Z,1028.10
2018-12-25T11:27:00.045Z,1028.09
2018-12-25T11:28:00.035Z,1028.11
2018-12-25T11:29:00.079Z,1028.16
2018-12-25T11:30:00.010Z,1028.17
2018-12-25T11:31:00.039Z,1028.13
2018-12-25T11:32:00.016Z,1028.13
2018-12-25T11:32:59.977Z,1028.09
2018-12-25T11:33:59.967Z,1028.05
2018-12-25T11:34:59.950Z,1028.05
2018-12-25T11:35:59.939Z,1028.01
2018-12-25T11:36:59.980Z,1028.01
2018-12-25T11:37:59.916Z,1027.99
2018-12-25T11:38:59.907Z,1027.96
2018-12-25T11:39:59.902Z,1027.94
2018-12-25T11:40:59.884Z,1027.94
2018-12-25T11:41:59.922Z,1027.88
2018-12-25T11:42:59.860Z,1027.89
2018-12-25T11:43:59.852Z,1027.89
2018-12-25T11:44:59.840Z,1027.89
2018-12-25T11:45:59.851Z,1027.87
2018-12-25T11:46:59.869Z,1027.79
2018-12-25T11:47:59.816Z,1027.77
2018-12-25T11:48:59.791Z,1027.77
2018-12-25T11:49:59.779Z,1027.70
2018-12-25T11:50:59.783Z,1027.76
2018-12-25T11:51:59.793Z,1027.75
2018-12-25T11:52:59.788Z,1027.71
2018-12-25T11:53:59.739Z,1027.79
2018-12-25T11:54:59.746Z,1027.75
2018-12-25T11:55:59.718Z,1027.73
2018-12-25T11:56:59.709Z,1027.74
2018-12-25T11:57:59.728Z,1027.74
2018-12-25T11:58:59.967Z,1027.72
2018-12-25T11:59:59.681Z,1027.71
2018-12-25T12:00:59.666Z,1027.68
2018-12-25T12:01:59.649Z,1027.72
2018-12-25T12:02:59.650Z,1027.73
2018-12-25T12:03:59.654Z,1027.74
2018-12-25T12:04:59.681Z,1027.74